CNQ3 weather

Niagara Central Dorothy Rungeling Airport
Welland, Ontario, Canada

Public forecast

Using degrees Celsius for public forecast. Weather courtesy of forecast.io.

METAR (pilot weather report)

Closest report is Niagara District Airport, 14.4 nm (26.7 km) NNE. Retrieved 2019/05/20 15:00 UTC (55 minutes ago):

CYSN 201500Z 25016G24KT 15SM SCT035 BKN078 19/11 A2973 RMK SC3AC4 SLP068 DENSITY ALT 1100FT

TAF (pilot weather forecast)

Closest forecast is Niagara District Airport, 14.4 nm (26.7 km) NNE. Retrieved 2019/05/20 13:42 UTC (2 hours ago):

TAF CYSN 201240Z 2013/2101 23010G20KT P6SM BKN070 TEMPO 2013/2015 BKN020 BKN070 FM201500 25015G30KT P6SM BKN030 TEMPO 2015/2018 BKN020 FM201800 27018G32KT P6SM BKN040 RMK NXT FCST BY 202000Z